sensor_id;sensor_type;location;lat;lon;timestamp;pressure;altitude;pressure_sealevel;temperature;humidity
17785;BME280;9016;53.582;10.062;2023-05-16T00:01:53;101156.09;;;13.64;66.64
17785;BME280;9016;53.582;10.062;2023-05-16T00:04:23;101152.25;;;13.68;66.40
17785;BME280;9016;53.582;10.062;2023-05-16T00:06:58;101153.56;;;13.75;66.56
17785;BME280;9016;53.582;10.062;2023-05-16T00:09:27;101154.22;;;13.78;66.48
17785;BME280;9016;53.582;10.062;2023-05-16T00:11:55;101155.50;;;13.73;66.34
17785;BME280;9016;53.582;10.062;2023-05-16T00:14:26;101155.94;;;13.79;66.57
17785;BME280;9016;53.582;10.062;2023-05-16T00:16:55;101152.94;;;13.84;66.42
17785;BME280;9016;53.582;10.062;2023-05-16T00:19:27;101163.88;;;13.54;67.19
17785;BME280;9016;53.582;10.062;2023-05-16T00:21:56;101167.31;;;13.56;67.22
17785;BME280;9016;53.582;10.062;2023-05-16T00:24:28;101160.41;;;13.66;66.87
17785;BME280;9016;53.582;10.062;2023-05-16T00:26:56;101168.97;;;13.71;66.57
17785;BME280;9016;53.582;10.062;2023-05-16T00:29:24;101162.97;;;13.68;66.54
17785;BME280;9016;53.582;10.062;2023-05-16T00:31:52;101155.81;;;13.68;66.43
17785;BME280;9016;53.582;10.062;2023-05-16T00:34:20;101154.06;;;13.67;66.29
17785;BME280;9016;53.582;10.062;2023-05-16T00:36:49;101174.75;;;13.65;66.39
17785;BME280;9016;53.582;10.062;2023-05-16T00:39:17;101170.34;;;13.64;66.30
17785;BME280;9016;53.582;10.062;2023-05-16T00:41:49;101162.66;;;13.72;66.26
17785;BME280;9016;53.582;10.062;2023-05-16T00:44:17;101165.19;;;13.88;66.10
17785;BME280;9016;53.582;10.062;2023-05-16T00:46:45;101167.59;;;13.78;66.10
17785;BME280;9016;53.582;10.062;2023-05-16T00:49:13;101167.81;;;13.75;66.17
17785;BME280;9016;53.582;10.062;2023-05-16T00:51:41;101173.50;;;13.83;65.97
17785;BME280;9016;53.582;10.062;2023-05-16T00:54:09;101176.88;;;13.87;65.79
17785;BME280;9016;53.582;10.062;2023-05-16T00:56:38;101171.69;;;13.84;65.65
17785;BME280;9016;53.582;10.062;2023-05-16T00:59:08;101174.63;;;13.93;65.65
17785;BME280;9016;53.582;10.062;2023-05-16T01:01:36;101175.69;;;13.91;65.63
17785;BME280;9016;53.582;10.062;2023-05-16T01:04:04;101179.84;;;13.82;65.46
17785;BME280;9016;53.582;10.062;2023-05-16T01:06:35;101171.41;;;13.88;65.22
17785;BME280;9016;53.582;10.062;2023-05-16T01:09:03;101174.22;;;13.73;65.95
17785;BME280;9016;53.582;10.062;2023-05-16T01:11:38;101173.47;;;13.71;66.11
17785;BME280;9016;53.582;10.062;2023-05-16T01:14:16;101171.81;;;13.82;66.24
17785;BME280;9016;53.582;10.062;2023-05-16T01:16:52;101178.56;;;13.88;66.14
17785;BME280;9016;53.582;10.062;2023-05-16T01:19:31;101182.81;;;13.78;66.08
17785;BME280;9016;53.582;10.062;2023-05-16T01:22:08;101178.69;;;13.86;65.80
17785;BME280;9016;53.582;10.062;2023-05-16T01:24:47;101184.94;;;14.00;65.50
17785;BME280;9016;53.582;10.062;2023-05-16T01:27:26;101182.78;;;13.92;65.44
17785;BME280;9016;53.582;10.062;2023-05-16T01:29:57;101188.25;;;13.90;66.11
17785;BME280;9016;53.582;10.062;2023-05-16T01:32:26;101184.38;;;13.94;65.94
17785;BME280;9016;53.582;10.062;2023-05-16T01:34:54;101181.63;;;13.96;65.84
17785;BME280;9016;53.582;10.062;2023-05-16T01:37:28;101178.97;;;13.82;66.32
17785;BME280;9016;53.582;10.062;2023-05-16T01:40:08;101185.84;;;13.86;66.17
17785;BME280;9016;53.582;10.062;2023-05-16T01:42:44;101177.47;;;13.78;66.81
17785;BME280;9016;53.582;10.062;2023-05-16T01:45:17;101177.38;;;13.79;66.69
17785;BME280;9016;53.582;10.062;2023-05-16T01:47:53;101184.69;;;13.90;66.97
17785;BME280;9016;53.582;10.062;2023-05-16T01:50:24;101183.72;;;13.91;67.06
17785;BME280;9016;53.582;10.062;2023-05-16T01:52:57;101180.97;;;13.93;67.02
17785;BME280;9016;53.582;10.062;2023-05-16T01:55:31;101203.94;;;13.82;67.63
17785;BME280;9016;53.582;10.062;2023-05-16T01:58:06;101199.25;;;13.86;67.67
17785;BME280;9016;53.582;10.062;2023-05-16T02:00:37;101203.41;;;13.77;67.85
17785;BME280;9016;53.582;10.062;2023-05-16T02:03:06;101202.94;;;13.71;68.28
17785;BME280;9016;53.582;10.062;2023-05-16T02:05:34;101203.81;;;13.71;68.46
17785;BME280;9016;53.582;10.062;2023-05-16T02:08:03;101199.72;;;13.66;67.57
17785;BME280;9016;53.582;10.062;2023-05-16T02:10:31;101195.13;;;13.54;67.60
17785;BME280;9016;53.582;10.062;2023-05-16T02:13:01;101194.69;;;13.47;68.08
17785;BME280;9016;53.582;10.062;2023-05-16T02:15:33;101192.72;;;13.37;68.10
17785;BME280;9016;53.582;10.062;2023-05-16T02:18:01;101199.28;;;13.45;67.90
17785;BME280;9016;53.582;10.062;2023-05-16T02:20:29;101188.06;;;13.53;67.18
17785;BME280;9016;53.582;10.062;2023-05-16T02:22:57;101190.75;;;13.53;66.74
17785;BME280;9016;53.582;10.062;2023-05-16T02:25:25;101186.16;;;13.55;67.06
17785;BME280;9016;53.582;10.062;2023-05-16T02:27:55;101185.19;;;13.56;67.07
17785;BME280;9016;53.582;10.062;2023-05-16T02:30:30;101193.22;;;13.56;65.93
17785;BME280;9016;53.582;10.062;2023-05-16T02:33:01;101197.47;;;13.46;65.78
17785;BME280;9016;53.582;10.062;2023-05-16T02:35:31;101201.31;;;13.42;66.18
17785;BME280;9016;53.582;10.062;2023-05-16T02:38:03;101201.41;;;13.40;65.92
17785;BME280;9016;53.582;10.062;2023-05-16T02:40:38;101198.72;;;13.40;65.33
17785;BME280;9016;53.582;10.062;2023-05-16T02:43:06;101196.81;;;13.42;64.66
17785;BME280;9016;53.582;10.062;2023-05-16T02:45:36;101214.13;;;13.37;65.36
17785;BME280;9016;53.582;10.062;2023-05-16T02:48:04;101205.13;;;13.38;64.28
17785;BME280;9016;53.582;10.062;2023-05-16T02:50:33;101210.31;;;13.41;64.54
17785;BME280;9016;53.582;10.062;2023-05-16T02:53:02;101217.75;;;13.50;64.23
17785;BME280;9016;53.582;10.062;2023-05-16T02:55:31;101221.47;;;13.47;64.03
17785;BME280;9016;53.582;10.062;2023-05-16T02:58:00;101225.00;;;13.48;64.09
17785;BME280;9016;53.582;10.062;2023-05-16T03:00:29;101220.69;;;13.45;64.20
17785;BME280;9016;53.582;10.062;2023-05-16T03:02:58;101218.03;;;13.45;64.78
17785;BME280;9016;53.582;10.062;2023-05-16T03:05:27;101221.41;;;13.35;64.66
17785;BME280;9016;53.582;10.062;2023-05-16T03:07:56;101227.03;;;13.30;64.17
17785;BME280;9016;53.582;10.062;2023-05-16T03:10:25;101219.22;;;13.27;64.25
17785;BME280;9016;53.582;10.062;2023-05-16T03:12:54;101228.84;;;13.44;64.36
17785;BME280;9016;53.582;10.062;2023-05-16T03:15:22;101231.63;;;13.42;64.64
17785;BME280;9016;53.582;10.062;2023-05-16T03:17:51;101233.44;;;13.42;63.78
17785;BME280;9016;53.582;10.062;2023-05-16T03:20:21;101234.84;;;13.47;63.68
17785;BME280;9016;53.582;10.062;2023-05-16T03:22:49;101242.44;;;13.41;63.52
17785;BME280;9016;53.582;10.062;2023-05-16T03:25:17;101251.22;;;13.29;64.22
17785;BME280;9016;53.582;10.062;2023-05-16T03:27:45;101250.94;;;13.19;64.07
17785;BME280;9016;53.582;10.062;2023-05-16T03:30:14;101246.63;;;13.03;64.47
17785;BME280;9016;53.582;10.062;2023-05-16T03:32:44;101250.66;;;13.10;64.37
17785;BME280;9016;53.582;10.062;2023-05-16T03:35:12;101250.09;;;13.19;64.22
17785;BME280;9016;53.582;10.062;2023-05-16T03:37:43;101252.78;;;13.19;63.42
17785;BME280;9016;53.582;10.062;2023-05-16T03:40:11;101256.88;;;13.10;63.44
17785;BME280;9016;53.582;10.062;2023-05-16T03:42:41;101258.31;;;13.16;63.49
17785;BME280;9016;53.582;10.062;2023-05-16T03:45:09;101258.78;;;13.08;63.24
17785;BME280;9016;53.582;10.062;2023-05-16T03:47:38;101256.19;;;13.07;62.70
17785;BME280;9016;53.582;10.062;2023-05-16T03:50:07;101262.28;;;12.94;63.12
17785;BME280;9016;53.582;10.062;2023-05-16T03:52:37;101261.66;;;13.05;63.38
17785;BME280;9016;53.582;10.062;2023-05-16T03:55:07;101269.47;;;13.08;62.60
17785;BME280;9016;53.582;10.062;2023-05-16T03:57:36;101266.13;;;13.05;62.41
17785;BME280;9016;53.582;10.062;2023-05-16T04:00:07;101260.94;;;13.02;62.36
17785;BME280;9016;53.582;10.062;2023-05-16T04:02:38;101274.31;;;13.02;62.33
17785;BME280;9016;53.582;10.062;2023-05-16T04:05:07;101276.34;;;12.98;62.69
17785;BME280;9016;53.582;10.062;2023-05-16T04:07:37;101279.84;;;12.98;62.47
17785;BME280;9016;53.582;10.062;2023-05-16T04:10:09;101277.28;;;12.97;62.04
17785;BME280;9016;53.582;10.062;2023-05-16T04:12:38;101272.13;;;12.94;63.07
17785;BME280;9016;53.582;10.062;2023-05-16T04:15:06;101283.28;;;13.01;62.47
17785;BME280;9016;53.582;10.062;2023-05-16T04:17:35;101279.00;;;12.98;62.86
17785;BME280;9016;53.582;10.062;2023-05-16T04:20:07;101288.50;;;13.04;62.48
17785;BME280;9016;53.582;10.062;2023-05-16T04:22:35;101286.88;;;13.15;61.91
17785;BME280;9016;53.582;10.062;2023-05-16T04:25:04;101281.78;;;12.97;61.93
17785;BME280;9016;53.582;10.062;2023-05-16T04:27:34;101289.44;;;13.03;61.79
17785;BME280;9016;53.582;10.062;2023-05-16T04:30:03;101297.22;;;12.91;62.26
17785;BME280;9016;53.582;10.062;2023-05-16T04:32:33;101298.25;;;12.75;62.62
17785;BME280;9016;53.582;10.062;2023-05-16T04:35:02;101307.56;;;12.83;62.18
17785;BME280;9016;53.582;10.062;2023-05-16T04:37:34;101315.97;;;12.91;62.09
17785;BME280;9016;53.582;10.062;2023-05-16T04:40:05;101312.91;;;12.98;61.59
17785;BME280;9016;53.582;10.062;2023-05-16T04:42:36;101311.94;;;12.98;61.23
17785;BME280;9016;53.582;10.062;2023-05-16T04:45:06;101317.41;;;12.97;61.33
17785;BME280;9016;53.582;10.062;2023-05-16T04:47:36;101318.94;;;13.01;60.42
17785;BME280;9016;53.582;10.062;2023-05-16T04:50:06;101324.13;;;13.04;59.94
17785;BME280;9016;53.582;10.062;2023-05-16T04:52:36;101340.44;;;12.85;59.77
17785;BME280;9016;53.582;10.062;2023-05-16T04:55:06;101332.41;;;12.85;59.85
17785;BME280;9016;53.582;10.062;2023-05-16T04:57:38;101324.19;;;12.88;59.35
17785;BME280;9016;53.582;10.062;2023-05-16T05:00:07;101337.75;;;12.85;58.78
17785;BME280;9016;53.582;10.062;2023-05-16T05:02:36;101345.69;;;12.87;58.90
17785;BME280;9016;53.582;10.062;2023-05-16T05:05:06;101340.72;;;12.65;59.53
17785;BME280;9016;53.582;10.062;2023-05-16T05:07:34;101342.09;;;12.72;58.80
17785;BME280;9016;53.582;10.062;2023-05-16T05:10:04;101346.78;;;12.69;59.14
17785;BME280;9016;53.582;10.062;2023-05-16T05:12:34;101348.38;;;12.71;58.52
17785;BME280;9016;53.582;10.062;2023-05-16T05:15:05;101345.63;;;12.73;58.39
17785;BME280;9016;53.582;10.062;2023-05-16T05:17:33;101351.81;;;12.89;58.31
17785;BME280;9016;53.582;10.062;2023-05-16T05:20:05;101346.44;;;12.89;57.32
17785;BME280;9016;53.582;10.062;2023-05-16T05:22:34;101350.56;;;12.94;57.53
17785;BME280;9016;53.582;10.062;2023-05-16T05:25:02;101348.47;;;13.00;57.14
17785;BME280;9016;53.582;10.062;2023-05-16T05:27:33;101361.84;;;13.00;57.23
17785;BME280;9016;53.582;10.062;2023-05-16T05:30:02;101359.03;;;12.87;56.77
17785;BME280;9016;53.582;10.062;2023-05-16T05:32:31;101359.41;;;12.81;56.17
17785;BME280;9016;53.582;10.062;2023-05-16T05:34:59;101368.00;;;12.86;56.38
17785;BME280;9016;53.582;10.062;2023-05-16T05:37:28;101362.56;;;13.03;55.54
17785;BME280;9016;53.582;10.062;2023-05-16T05:39:56;101364.34;;;13.03;55.09
17785;BME280;9016;53.582;10.062;2023-05-16T05:42:25;101359.13;;;13.15;55.17
17785;BME280;9016;53.582;10.062;2023-05-16T05:44:53;101361.66;;;13.46;54.25
17785;BME280;9016;53.582;10.062;2023-05-16T05:47:22;101369.78;;;13.59;53.75
17785;BME280;9016;53.582;10.062;2023-05-16T05:49:50;101370.91;;;13.69;53.74
17785;BME280;9016;53.582;10.062;2023-05-16T05:52:18;101372.81;;;13.81;53.23
17785;BME280;9016;53.582;10.062;2023-05-16T05:54:47;101368.63;;;13.49;53.39
17785;BME280;9016;53.582;10.062;2023-05-16T05:57:15;101357.34;;;13.44;53.50
17785;BME280;9016;53.582;10.062;2023-05-16T05:59:43;101360.28;;;13.39;53.83
17785;BME280;9016;53.582;10.062;2023-05-16T06:02:12;101380.66;;;13.56;53.93
17785;BME280;9016;53.582;10.062;2023-05-16T06:04:42;101378.56;;;13.47;53.81
17785;BME280;9016;53.582;10.062;2023-05-16T06:07:11;101373.81;;;13.52;53.63
17785;BME280;9016;53.582;10.062;2023-05-16T06:09:41;101379.63;;;13.44;53.03
17785;BME280;9016;53.582;10.062;2023-05-16T06:12:09;101392.63;;;13.64;52.38
17785;BME280;9016;53.582;10.062;2023-05-16T06:14:38;101385.66;;;13.76;52.06
17785;BME280;9016;53.582;10.062;2023-05-16T06:17:06;101392.50;;;13.80;51.41
17785;BME280;9016;53.582;10.062;2023-05-16T06:19:37;101389.38;;;13.73;50.18
17785;BME280;9016;53.582;10.062;2023-05-16T06:22:07;101387.47;;;13.47;50.97
17785;BME280;9016;53.582;10.062;2023-05-16T06:24:35;101388.13;;;13.65;49.81
17785;BME280;9016;53.582;10.062;2023-05-16T06:27:03;101397.31;;;13.75;49.78
17785;BME280;9016;53.582;10.062;2023-05-16T06:29:31;101389.00;;;13.79;49.32
17785;BME280;9016;53.582;10.062;2023-05-16T06:31:59;101388.19;;;13.91;49.88
17785;BME280;9016;53.582;10.062;2023-05-16T06:34:27;101390.34;;;15.20;48.64
17785;BME280;9016;53.582;10.062;2023-05-16T06:36:55;101389.53;;;16.06;45.09
17785;BME280;9016;53.582;10.062;2023-05-16T06:39:25;101390.34;;;15.70;44.80
17785;BME280;9016;53.582;10.062;2023-05-16T06:41:53;101399.44;;;15.17;46.63
17785;BME280;9016;53.582;10.062;2023-05-16T06:44:22;101407.00;;;14.85;46.72
17785;BME280;9016;53.582;10.062;2023-05-16T06:46:50;101410.72;;;14.70;48.46
17785;BME280;9016;53.582;10.062;2023-05-16T06:49:18;101404.59;;;14.42;49.08
17785;BME280;9016;53.582;10.062;2023-05-16T06:51:46;101411.50;;;14.46;49.98
17785;BME280;9016;53.582;10.062;2023-05-16T06:54:14;101414.47;;;14.41;49.79
17785;BME280;9016;53.582;10.062;2023-05-16T06:56:44;101417.69;;;14.46;50.27
17785;BME280;9016;53.582;10.062;2023-05-16T06:59:15;101422.66;;;14.52;50.13
17785;BME280;9016;53.582;10.062;2023-05-16T07:01:43;101424.16;;;15.22;49.48
17785;BME280;9016;53.582;10.062;2023-05-16T07:04:11;101425.25;;;16.80;46.42
17785;BME280;9016;53.582;10.062;2023-05-16T07:06:41;101416.66;;;16.99;44.04
17785;BME280;9016;53.582;10.062;2023-05-16T07:09:09;101428.91;;;16.43;44.54
17785;BME280;9016;53.582;10.062;2023-05-16T07:11:38;101422.44;;;16.09;44.96
17785;BME280;9016;53.582;10.062;2023-05-16T07:14:07;101433.47;;;15.56;44.93
17785;BME280;9016;53.582;10.062;2023-05-16T07:16:36;101444.34;;;15.40;45.82
17785;BME280;9016;53.582;10.062;2023-05-16T07:19:06;101443.69;;;15.24;45.40
17785;BME280;9016;53.582;10.062;2023-05-16T07:21:35;101441.88;;;14.85;46.26
17785;BME280;9016;53.582;10.062;2023-05-16T07:24:05;101444.34;;;15.40;45.80
17785;BME280;9016;53.582;10.062;2023-05-16T07:26:33;101450.22;;;15.47;45.04
17785;BME280;9016;53.582;10.062;2023-05-16T07:29:01;101451.06;;;16.46;43.23
17785;BME280;9016;53.582;10.062;2023-05-16T07:31:33;101462.75;;;16.94;41.83
17785;BME280;9016;53.582;10.062;2023-05-16T07:34:02;101440.59;;;18.04;39.69
17785;BME280;9016;53.582;10.062;2023-05-16T07:36:30;101439.84;;;18.24;39.67
17785;BME280;9016;53.582;10.062;2023-05-16T07:38:58;101434.09;;;19.97;35.72
17785;BME280;9016;53.582;10.062;2023-05-16T07:41:27;101434.41;;;21.11;32.29
17785;BME280;9016;53.582;10.062;2023-05-16T07:43:57;101426.69;;;22.55;30.55
17785;BME280;9016;53.582;10.062;2023-05-16T07:46:25;101433.06;;;23.08;29.36
17785;BME280;9016;53.582;10.062;2023-05-16T07:48:55;101427.66;;;24.28;28.23
17785;BME280;9016;53.582;10.062;2023-05-16T07:51:23;101430.63;;;24.59;28.18
17785;BME280;9016;53.582;10.062;2023-05-16T07:53:52;101434.00;;;23.34;29.79
17785;BME280;9016;53.582;10.062;2023-05-16T07:56:20;101445.91;;;21.71;31.23
17785;BME280;9016;53.582;10.062;2023-05-16T07:58:49;101453.06;;;20.27;32.67
17785;BME280;9016;53.582;10.062;2023-05-16T08:01:19;101453.50;;;20.32;32.92
17785;BME280;9016;53.582;10.062;2023-05-16T08:03:47;101441.84;;;22.30;29.55
17785;BME280;9016;53.582;10.062;2023-05-16T08:06:17;101433.44;;;23.13;28.02
17785;BME280;9016;53.582;10.062;2023-05-16T08:08:45;101449.41;;;22.63;28.84
17785;BME280;9016;53.582;10.062;2023-05-16T08:11:14;101451.69;;;23.56;26.96
17785;BME280;9016;53.582;10.062;2023-05-16T08:13:43;101442.97;;;24.29;26.87
17785;BME280;9016;53.582;10.062;2023-05-16T08:16:11;101434.19;;;25.25;25.54
17785;BME280;9016;53.582;10.062;2023-05-16T08:18:39;101449.50;;;23.85;26.48
17785;BME280;9016;53.582;10.062;2023-05-16T08:21:08;101451.50;;;23.75;26.45
17785;BME280;9016;53.582;10.062;2023-05-16T08:23:37;101450.38;;;24.95;25.51
17785;BME280;9016;53.582;10.062;2023-05-16T08:26:05;101445.44;;;24.15;26.26
17785;BME280;9016;53.582;10.062;2023-05-16T08:28:33;101444.91;;;24.45;26.38
17785;BME280;9016;53.582;10.062;2023-05-16T08:31:01;101444.69;;;22.66;28.61
17785;BME280;9016;53.582;10.062;2023-05-16T08:33:29;101457.88;;;20.73;31.71
17785;BME280;9016;53.582;10.062;2023-05-16T08:35:57;101470.91;;;19.58;33.68
17785;BME280;9016;53.582;10.062;2023-05-16T08:38:26;101452.09;;;19.77;33.45
17785;BME280;9016;53.582;10.062;2023-05-16T08:40:55;101463.91;;;22.18;30.16
17785;BME280;9016;53.582;10.062;2023-05-16T08:43:23;101454.63;;;22.75;29.41
17785;BME280;9016;53.582;10.062;2023-05-16T08:45:54;101452.72;;;23.81;28.37
17785;BME280;9016;53.582;10.062;2023-05-16T08:48:23;101446.66;;;25.28;26.75
17785;BME280;9016;53.582;10.062;2023-05-16T08:50:51;101441.56;;;25.73;26.66
17785;BME280;9016;53.582;10.062;2023-05-16T08:53:21;101418.75;;;26.21;25.61
17785;BME280;9016;53.582;10.062;2023-05-16T08:55:53;101449.66;;;26.13;23.71
17785;BME280;9016;53.582;10.062;2023-05-16T08:58:23;101458.94;;;25.80;22.68
17785;BME280;9016;53.582;10.062;2023-05-16T09:00:52;101441.47;;;26.13;22.72
17785;BME280;9016;53.582;10.062;2023-05-16T09:03:22;101432.81;;;26.79;22.26
17785;BME280;9016;53.582;10.062;2023-05-16T09:05:50;101436.00;;;27.36;22.05
17785;BME280;9016;53.582;10.062;2023-05-16T09:08:19;101438.31;;;27.99;21.25
17785;BME280;9016;53.582;10.062;2023-05-16T09:10:47;101444.53;;;26.57;22.44
17785;BME280;9016;53.582;10.062;2023-05-16T09:13:15;101441.13;;;26.16;23.25
17785;BME280;9016;53.582;10.062;2023-05-16T09:15:44;101444.88;;;24.87;24.60
17785;BME280;9016;53.582;10.062;2023-05-16T09:18:12;101446.47;;;25.86;24.31
17785;BME280;9016;53.582;10.062;2023-05-16T09:20:43;101449.72;;;26.44;24.37
17785;BME280;9016;53.582;10.062;2023-05-16T09:23:13;101444.34;;;26.20;24.43
17785;BME280;9016;53.582;10.062;2023-05-16T09:25:41;101450.22;;;26.48;24.49
17785;BME280;9016;53.582;10.062;2023-05-16T09:28:09;101465.88;;;26.23;23.90
17785;BME280;9016;53.582;10.062;2023-05-16T09:30:39;101464.31;;;24.84;25.35
17785;BME280;9016;53.582;10.062;2023-05-16T09:33:09;101468.22;;;24.81;25.77
17785;BME280;9016;53.582;10.062;2023-05-16T09:35:37;101461.16;;;23.70;27.33
17785;BME280;9016;53.582;10.062;2023-05-16T09:38:14;101465.69;;;22.09;29.29
17785;BME280;9016;53.582;10.062;2023-05-16T09:40:43;101474.63;;;21.54;30.24
17785;BME280;9016;53.582;10.062;2023-05-16T09:43:14;101455.22;;;22.14;28.82
17785;BME280;9016;53.582;10.062;2023-05-16T09:45:45;101461.59;;;22.59;28.65
17785;BME280;9016;53.582;10.062;2023-05-16T09:48:17;101450.00;;;21.94;29.79
17785;BME280;9016;53.582;10.062;2023-05-16T09:50:47;101455.44;;;21.94;29.94
17785;BME280;9016;53.582;10.062;2023-05-16T09:53:17;101447.75;;;21.89;29.17
17785;BME280;9016;53.582;10.062;2023-05-16T09:55:45;101449.75;;;21.87;30.00
17785;BME280;9016;53.582;10.062;2023-05-16T09:58:16;101448.22;;;21.56;28.95
17785;BME280;9016;53.582;10.062;2023-05-16T10:00:45;101452.72;;;20.50;29.71
17785;BME280;9016;53.582;10.062;2023-05-16T10:03:14;101460.66;;;19.82;30.51
17785;BME280;9016;53.582;10.062;2023-05-16T10:05:44;101449.97;;;19.81;30.74
17785;BME280;9016;53.582;10.062;2023-05-16T10:08:12;101459.78;;;20.32;30.31
17785;BME280;9016;53.582;10.062;2023-05-16T10:10:41;101460.94;;;19.79;31.16
17785;BME280;9016;53.582;10.062;2023-05-16T10:13:10;101484.00;;;19.10;33.01
17785;BME280;9016;53.582;10.062;2023-05-16T10:15:40;101485.69;;;18.79;34.40
17785;BME280;9016;53.582;10.062;2023-05-16T10:18:08;101466.81;;;18.57;34.59
17785;BME280;9016;53.582;10.062;2023-05-16T10:20:40;101476.81;;;19.20;34.16
17785;BME280;9016;53.582;10.062;2023-05-16T10:23:14;101469.81;;;19.70;33.37
17785;BME280;9016;53.582;10.062;2023-05-16T10:25:43;101467.72;;;19.32;34.38
17785;BME280;9016;53.582;10.062;2023-05-16T10:28:12;101470.56;;;19.51;34.64
17785;BME280;9016;53.582;10.062;2023-05-16T10:30:44;101467.06;;;19.40;34.90
17785;BME280;9016;53.582;10.062;2023-05-16T10:33:14;101462.16;;;19.96;34.11
17785;BME280;9016;53.582;10.062;2023-05-16T10:35:43;101467.44;;;19.97;34.94
17785;BME280;9016;53.582;10.062;2023-05-16T10:38:16;101468.06;;;20.90;33.60
17785;BME280;9016;53.582;10.062;2023-05-16T10:40:46;101470.50;;;20.53;33.05
17785;BME280;9016;53.582;10.062;2023-05-16T10:43:22;101465.88;;;19.74;32.95
17785;BME280;9016;53.582;10.062;2023-05-16T10:45:54;101473.16;;;19.73;33.87
17785;BME280;9016;53.582;10.062;2023-05-16T10:48:30;101464.16;;;19.52;33.49
17785;BME280;9016;53.582;10.062;2023-05-16T10:50:59;101484.88;;;19.63;33.14
17785;BME280;9016;53.582;10.062;2023-05-16T10:53:32;101477.91;;;19.91;32.03
17785;BME280;9016;53.582;10.062;2023-05-16T10:56:08;101476.03;;;19.61;32.56
17785;BME280;9016;53.582;10.062;2023-05-16T10:58:46;101484.53;;;19.36;33.29
17785;BME280;9016;53.582;10.062;2023-05-16T11:01:22;101484.56;;;18.82;32.78
17785;BME280;9016;53.582;10.062;2023-05-16T11:04:08;101501.22;;;18.44;32.58
17785;BME280;9016;53.582;10.062;2023-05-16T11:06:45;101514.63;;;17.67;35.05
17785;BME280;9016;53.582;10.062;2023-05-16T11:09:20;101508.69;;;17.62;36.73
17785;BME280;9016;53.582;10.062;2023-05-16T11:11:58;101503.47;;;17.71;37.54
17785;BME280;9016;53.582;10.062;2023-05-16T11:14:28;101526.16;;;17.22;36.50
17785;BME280;9016;53.582;10.062;2023-05-16T11:17:02;101510.03;;;17.56;35.49
17785;BME280;9016;53.582;10.062;2023-05-16T11:19:37;101513.53;;;17.80;34.35
17785;BME280;9016;53.582;10.062;2023-05-16T11:22:07;101501.31;;;18.32;33.87
17785;BME280;9016;53.582;10.062;2023-05-16T11:24:38;101507.09;;;18.16;33.34
17785;BME280;9016;53.582;10.062;2023-05-16T11:27:06;101508.50;;;17.76;34.03
17785;BME280;9016;53.582;10.062;2023-05-16T11:29:35;101520.91;;;18.01;34.41
17785;BME280;9016;53.582;10.062;2023-05-16T11:32:04;101525.38;;;18.46;34.41
17785;BME280;9016;53.582;10.062;2023-05-16T11:34:35;101511.00;;;18.34;33.36
17785;BME280;9016;53.582;10.062;2023-05-16T11:37:05;101513.69;;;18.34;33.63
17785;BME280;9016;53.582;10.062;2023-05-16T11:39:34;101516.31;;;17.33;34.59
17785;BME280;9016;53.582;10.062;2023-05-16T11:42:05;101515.16;;;17.25;35.80
17785;BME280;9016;53.582;10.062;2023-05-16T11:44:33;101515.53;;;16.84;35.08
17785;BME280;9016;53.582;10.062;2023-05-16T11:47:01;101510.22;;;16.95;35.19
17785;BME280;9016;53.582;10.062;2023-05-16T11:49:30;101515.38;;;16.74;35.88
17785;BME280;9016;53.582;10.062;2023-05-16T11:51:59;101508.94;;;16.64;36.18
17785;BME280;9016;53.582;10.062;2023-05-16T11:54:30;101512.91;;;16.71;36.58
17785;BME280;9016;53.582;10.062;2023-05-16T11:57:01;101523.72;;;16.46;37.56
17785;BME280;9016;53.582;10.062;2023-05-16T11:59:31;101533.63;;;16.33;37.13
17785;BME280;9016;53.582;10.062;2023-05-16T12:02:02;101528.47;;;16.55;37.31
17785;BME280;9016;53.582;10.062;2023-05-16T12:04:32;101526.47;;;16.70;36.71
17785;BME280;9016;53.582;10.062;2023-05-16T12:07:01;101513.03;;;16.70;36.78
17785;BME280;9016;53.582;10.062;2023-05-16T12:09:29;101524.78;;;16.69;36.79
17785;BME280;9016;53.582;10.062;2023-05-16T12:11:57;101536.44;;;16.80;37.25
17785;BME280;9016;53.582;10.062;2023-05-16T12:14:26;101544.69;;;16.66;37.95
17785;BME280;9016;53.582;10.062;2023-05-16T12:16:57;101526.66;;;16.79;37.95
17785;BME280;9016;53.582;10.062;2023-05-16T12:19:31;101548.91;;;16.94;37.58
17785;BME280;9016;53.582;10.062;2023-05-16T12:22:00;101549.03;;;16.93;37.84
17785;BME280;9016;53.582;10.062;2023-05-16T12:24:29;101550.19;;;16.65;37.07
17785;BME280;9016;53.582;10.062;2023-05-16T12:26:58;101536.84;;;16.63;37.23
17785;BME280;9016;53.582;10.062;2023-05-16T12:29:26;101544.72;;;16.54;36.61
17785;BME280;9016;53.582;10.062;2023-05-16T12:31:55;101538.47;;;16.53;37.22
17785;BME280;9016;53.582;10.062;2023-05-16T12:34:28;101549.00;;;16.56;36.70
17785;BME280;9016;53.582;10.062;2023-05-16T12:36:58;101541.84;;;16.80;37.04
17785;BME280;9016;53.582;10.062;2023-05-16T12:39:35;101553.06;;;16.74;37.02
17785;BME280;9016;53.582;10.062;2023-05-16T12:42:04;101562.16;;;16.48;37.63
17785;BME280;9016;53.582;10.062;2023-05-16T12:44:35;101559.47;;;16.48;37.66
17785;BME280;9016;53.582;10.062;2023-05-16T12:47:11;101572.78;;;16.37;37.48
17785;BME280;9016;53.582;10.062;2023-05-16T12:49:45;101571.53;;;16.30;38.96
17785;BME280;9016;53.582;10.062;2023-05-16T12:52:16;101583.16;;;16.56;39.73
17785;BME280;9016;53.582;10.062;2023-05-16T12:54:46;101569.84;;;16.78;39.88
17785;BME280;9016;53.582;10.062;2023-05-16T12:57:19;101579.84;;;16.89;39.98
17785;BME280;9016;53.582;10.062;2023-05-16T12:59:47;101583.31;;;16.78;40.35
17785;BME280;9016;53.582;10.062;2023-05-16T13:02:15;101571.94;;;16.49;40.69
17785;BME280;9016;53.582;10.062;2023-05-16T13:04:46;101576.66;;;16.46;41.39